createdAt,value
2022-11-27T00:01:38.259Z,102444.63
2022-11-27T00:04:07.643Z,102442.00
2022-11-27T00:06:36.317Z,102441.13
2022-11-27T00:09:10.360Z,102442.84
2022-11-27T00:11:41.426Z,102436.69
2022-11-27T00:14:16.201Z,102428.00
2022-11-27T00:16:43.869Z,102426.22
2022-11-27T00:19:12.026Z,102425.31
2022-11-27T00:21:39.539Z,102416.56
2022-11-27T00:24:09.217Z,102418.28
2022-11-27T00:26:38.333Z,102409.53
2022-11-27T00:29:07.592Z,102401.72
2022-11-27T00:31:37.474Z,102402.56
2022-11-27T00:34:08.501Z,102401.66
2022-11-27T00:36:37.464Z,102397.28
2022-11-27T00:39:06.164Z,102404.28
2022-11-27T00:41:33.690Z,102400.75
2022-11-27T00:44:01.059Z,102397.28
2022-11-27T00:46:31.725Z,102394.66
2022-11-27T00:49:01.988Z,102390.31
2022-11-27T00:51:30.160Z,102392.91
2022-11-27T00:53:58.827Z,102386.84
2022-11-27T00:56:33.182Z,102392.03
2022-11-27T00:59:01.215Z,102373.72
2022-11-27T01:01:32.730Z,102381.50
2022-11-27T01:04:02.405Z,102383.22
2022-11-27T01:06:30.858Z,102379.69
2022-11-27T01:08:59.175Z,102377.88
2022-11-27T01:11:34.512Z,102379.56
2022-11-27T01:14:11.878Z,102381.28
2022-11-27T01:16:42.953Z,102373.38
2022-11-27T01:19:13.294Z,102373.34
2022-11-27T01:21:41.463Z,102370.69
2022-11-27T01:24:12.007Z,102367.16
2022-11-27T01:26:39.534Z,102367.09
2022-11-27T01:29:06.968Z,102361.81
2022-11-27T01:31:35.352Z,102364.41
2022-11-27T01:34:07.300Z,102363.47
2022-11-27T01:36:35.959Z,102366.03
2022-11-27T01:39:04.768Z,102363.34
2022-11-27T01:41:39.810Z,102362.44
2022-11-27T01:44:25.598Z,102372.81
2022-11-27T01:47:00.282Z,102360.56
2022-11-27T01:49:53.581Z,102351.84
2022-11-27T01:52:36.825Z,102344.88
2022-11-27T01:55:18.836Z,102350.03
2022-11-27T01:57:53.244Z,102345.69
2022-11-27T02:00:21.748Z,102343.91
2022-11-27T02:02:50.023Z,102348.25
2022-11-27T02:05:23.558Z,102336.13
2022-11-27T02:07:53.713Z,102335.25
2022-11-27T02:10:48.433Z,102321.38
2022-11-27T02:13:31.001Z,102310.03
2022-11-27T02:16:18.940Z,102294.41
2022-11-27T02:19:15.730Z,102297.00
2022-11-27T02:22:02.074Z,102285.66
2022-11-27T02:25:23.921Z,102269.22
2022-11-27T02:28:37.249Z,102264.00
2022-11-27T02:31:29.154Z,102255.28
2022-11-27T02:34:07.823Z,102255.19
2022-11-27T02:36:39.726Z,102242.16
2022-11-27T02:39:16.762Z,102230.09
2022-11-27T02:41:55.656Z,102223.13
2022-11-27T02:44:30.239Z,102223.97
2022-11-27T02:46:57.834Z,102232.69
2022-11-27T02:49:26.490Z,102234.47
2022-11-27T02:51:59.076Z,102244.88
2022-11-27T02:54:31.051Z,102237.06
2022-11-27T02:57:04.811Z,102248.41
2022-11-27T02:59:38.085Z,102250.19
2022-11-27T03:02:14.303Z,102250.19
2022-11-27T03:04:50.521Z,102245.88
2022-11-27T03:07:31.582Z,102242.41
2022-11-27T03:10:09.947Z,102238.97
2022-11-27T03:12:37.347Z,102232.88
2022-11-27T03:15:06.666Z,102246.00
2022-11-27T03:18:12.495Z,102233.88
2022-11-27T03:20:46.785Z,102236.47
2022-11-27T03:23:14.166Z,102239.13
2022-11-27T03:25:41.516Z,102242.63
2022-11-27T03:28:12.188Z,102236.63
2022-11-27T03:30:41.474Z,102228.84
2022-11-27T03:33:09.189Z,102222.81
2022-11-27T03:35:37.491Z,102221.97
2022-11-27T03:38:05.036Z,102226.31
2022-11-27T03:41:05.157Z,102215.97
2022-11-27T03:43:46.343Z,102223.78
2022-11-27T03:46:49.940Z,102216.81
2022-11-27T03:50:10.743Z,102231.63
2022-11-27T03:53:08.446Z,102218.66
2022-11-27T03:55:57.426Z,102218.69
2022-11-27T03:58:44.773Z,102212.66
2022-11-27T04:01:19.428Z,102209.19
2022-11-27T04:03:47.131Z,102204.88
2022-11-27T04:06:14.580Z,102203.16
2022-11-27T04:08:42.544Z,102204.97
2022-11-27T04:11:13.695Z,102202.38
2022-11-27T04:13:41.259Z,102212.00
2022-11-27T04:16:11.804Z,102198.94
2022-11-27T04:18:39.219Z,102208.56
2022-11-27T04:21:09.607Z,102205.97
2022-11-27T04:23:38.439Z,102201.66
2022-11-27T04:26:06.019Z,102199.97
2022-11-27T04:28:33.397Z,102192.09
2022-11-27T04:31:00.950Z,102199.91
2022-11-27T04:33:28.557Z,102196.44
2022-11-27T04:35:55.918Z,102193.84
2022-11-27T04:38:23.398Z,102192.13
2022-11-27T04:40:54.045Z,102198.25
2022-11-27T04:43:21.494Z,102198.25
2022-11-27T04:45:48.900Z,102199.13
2022-11-27T04:48:16.383Z,102210.41
2022-11-27T04:50:43.837Z,102195.63
2022-11-27T04:53:11.171Z,102195.63
2022-11-27T04:55:38.622Z,102208.75
2022-11-27T04:58:06.022Z,102201.78
2022-11-27T05:00:33.531Z,102189.63
2022-11-27T05:03:01.068Z,102178.28
2022-11-27T05:05:28.571Z,102178.28
2022-11-27T05:07:56.220Z,102173.94
2022-11-27T05:10:23.727Z,102161.72
2022-11-27T05:12:51.145Z,102158.28
2022-11-27T05:15:18.522Z,102161.72
2022-11-27T05:17:45.920Z,102169.56
2022-11-27T05:20:13.514Z,102166.06
2022-11-27T05:22:40.954Z,102157.38
2022-11-27T05:25:08.823Z,102141.72
2022-11-27T05:27:36.157Z,102141.72
2022-11-27T05:30:04.335Z,102136.50
2022-11-27T05:32:31.693Z,102139.97
2022-11-27T05:34:59.023Z,102148.66
2022-11-27T05:37:26.437Z,102148.69
2022-11-27T05:39:53.874Z,102133.00
2022-11-27T05:42:21.309Z,102119.09
2022-11-27T05:44:49.525Z,102132.13
2022-11-27T05:47:19.085Z,102129.56
2022-11-27T05:49:48.730Z,102116.53
2022-11-27T05:52:16.100Z,102120.88
2022-11-27T05:54:43.516Z,102126.09
2022-11-27T05:57:10.856Z,102122.59
2022-11-27T05:59:38.359Z,102117.38
2022-11-27T06:02:05.844Z,102119.16
2022-11-27T06:04:34.738Z,102114.81
2022-11-27T06:07:02.062Z,102114.84
2022-11-27T06:09:29.420Z,102112.25
2022-11-27T06:11:56.857Z,102112.25
2022-11-27T06:14:24.221Z,102112.28
2022-11-27T06:16:51.618Z,102107.09
2022-11-27T06:19:19.016Z,102114.97
2022-11-27T06:21:46.494Z,102114.97
2022-11-27T06:24:14.111Z,102106.25
2022-11-27T06:26:41.516Z,102107.13
2022-11-27T06:29:10.057Z,102105.41
2022-11-27T06:31:37.975Z,102090.66
2022-11-27T06:34:06.431Z,102094.16
2022-11-27T06:36:38.463Z,102086.34
2022-11-27T06:39:08.341Z,102086.31
2022-11-27T06:41:36.072Z,102082.84
2022-11-27T06:44:04.040Z,102072.41
2022-11-27T06:46:31.397Z,102087.19
2022-11-27T06:48:59.506Z,102078.53
2022-11-27T06:51:30.238Z,102090.69
2022-11-27T06:54:00.917Z,102082.91
2022-11-27T06:56:31.209Z,102087.25
2022-11-27T06:59:01.310Z,102086.41
2022-11-27T07:01:31.276Z,102084.69
2022-11-27T07:03:59.343Z,102080.38
2022-11-27T07:06:27.335Z,102087.31
2022-11-27T07:08:55.831Z,102085.59
2022-11-27T07:11:27.823Z,102076.06
2022-11-27T07:13:58.669Z,102079.56
2022-11-27T07:16:29.034Z,102073.47
2022-11-27T07:19:01.827Z,102077.84
2022-11-27T07:21:29.540Z,102075.28
2022-11-27T07:23:57.791Z,102061.38
2022-11-27T07:26:28.823Z,102060.56
2022-11-27T07:28:56.782Z,102058.81
2022-11-27T07:31:30.547Z,102054.50
2022-11-27T07:33:58.828Z,102063.19
2022-11-27T07:36:30.037Z,102054.53
2022-11-27T07:38:58.310Z,102049.31
2022-11-27T07:41:30.546Z,102058.00
2022-11-27T07:44:01.032Z,102050.16
2022-11-27T07:46:30.073Z,102044.94
2022-11-27T07:48:58.101Z,102046.69
2022-11-27T07:51:25.486Z,102038.84
2022-11-27T07:53:53.020Z,102045.81
2022-11-27T07:56:20.973Z,102035.38
2022-11-27T07:58:48.740Z,102032.75
2022-11-27T08:01:19.357Z,102030.19
2022-11-27T08:03:47.178Z,102024.09
2022-11-27T08:06:26.568Z,102020.63
2022-11-27T08:08:56.784Z,102010.19
2022-11-27T08:11:34.954Z,102009.31
2022-11-27T08:14:06.141Z,102013.66
2022-11-27T08:16:35.351Z,101999.69
2022-11-27T08:19:03.864Z,102005.81
2022-11-27T08:21:32.610Z,102004.94
2022-11-27T08:23:59.945Z,101999.72
2022-11-27T08:26:28.594Z,102012.78
2022-11-27T08:28:57.352Z,101995.38
2022-11-27T08:31:25.362Z,102006.69
2022-11-27T08:33:52.847Z,101992.78
2022-11-27T08:36:20.328Z,101995.38
2022-11-27T08:38:47.694Z,101990.16
2022-11-27T08:41:15.169Z,101984.06
2022-11-27T08:43:42.610Z,101980.59
2022-11-27T08:46:10.167Z,101982.31
2022-11-27T08:48:38.105Z,101969.28
2022-11-27T08:51:12.452Z,101973.66
2022-11-27T08:53:40.850Z,101978.00
2022-11-27T08:56:25.097Z,101977.16
2022-11-27T08:58:52.656Z,101971.94
2022-11-27T09:01:25.748Z,101968.44
2022-11-27T09:03:53.708Z,101970.22
2022-11-27T09:06:25.560Z,101963.25
2022-11-27T09:08:53.066Z,101971.94
2022-11-27T09:11:20.980Z,101969.31
2022-11-27T09:13:49.831Z,101958.03
2022-11-27T09:16:19.956Z,101967.59
2022-11-27T09:18:50.592Z,101953.72
2022-11-27T09:21:21.746Z,101960.66
2022-11-27T09:24:02.619Z,101952.84
2022-11-27T09:26:31.055Z,101943.28
2022-11-27T09:28:59.493Z,101952.84
2022-11-27T09:31:27.326Z,101951.13
2022-11-27T09:33:54.866Z,101945.94
2022-11-27T09:36:25.812Z,101956.38
2022-11-27T09:38:54.278Z,101957.28
2022-11-27T09:41:46.188Z,101955.63
2022-11-27T09:44:24.941Z,101959.13
2022-11-27T09:46:54.412Z,101960.91
2022-11-27T09:49:41.290Z,101969.63
2022-11-27T09:52:28.387Z,101968.78
2022-11-27T09:55:02.849Z,101967.06
2022-11-27T09:57:39.457Z,101969.69
2022-11-27T10:00:16.671Z,101961.03
2022-11-27T10:02:44.981Z,101954.97
2022-11-27T10:05:46.252Z,101955.84
2022-11-27T10:08:35.757Z,101957.63
2022-11-27T10:11:40.285Z,101953.31
2022-11-27T10:14:50.037Z,101944.63
2022-11-27T10:17:27.325Z,101945.50
2022-11-27T10:20:28.985Z,101942.06
2022-11-27T10:23:05.148Z,101937.69
2022-11-27T10:25:53.833Z,101917.69
2022-11-27T10:29:15.016Z,101915.09
2022-11-27T10:32:02.062Z,101906.38
2022-11-27T10:35:01.670Z,101902.03
2022-11-27T10:37:47.005Z,101902.94
2022-11-27T10:40:14.367Z,101895.97
2022-11-27T10:43:18.423Z,101892.50
2022-11-27T10:45:59.398Z,101889.03
2022-11-27T10:48:30.296Z,101885.53
2022-11-27T10:50:57.739Z,101882.06
2022-11-27T10:53:27.486Z,101879.50
2022-11-27T10:56:07.921Z,101886.44
2022-11-27T10:59:04.379Z,101881.22
2022-11-27T11:01:50.927Z,101879.47
2022-11-27T11:04:43.278Z,101872.53
2022-11-27T11:07:29.347Z,101870.81
2022-11-27T11:09:56.925Z,101864.69
2022-11-27T11:12:24.405Z,101862.06
2022-11-27T11:14:59.017Z,101860.31
2022-11-27T11:17:37.089Z,101862.94
2022-11-27T11:20:24.971Z,101847.28
2022-11-27T11:22:52.434Z,101836.81
2022-11-27T11:25:22.149Z,101844.66
2022-11-27T11:27:52.296Z,101838.59
2022-11-27T11:30:24.603Z,101830.75
2022-11-27T11:33:04.078Z,101831.63
2022-11-27T11:35:35.946Z,101824.63
2022-11-27T11:38:16.896Z,101823.75
2022-11-27T11:40:58.470Z,101818.53
2022-11-27T11:43:30.586Z,101817.69
2022-11-27T11:46:18.026Z,101814.19
2022-11-27T11:49:08.511Z,101816.81
2022-11-27T11:51:51.302Z,101811.59
2022-11-27T11:54:43.265Z,101806.34
2022-11-27T11:57:49.689Z,101793.28
2022-11-27T12:00:29.617Z,101790.66
2022-11-27T12:03:32.126Z,101788.06
2022-11-27T12:06:24.512Z,101779.34
2022-11-27T12:09:26.054Z,101773.25
2022-11-27T12:12:13.693Z,101754.91
2022-11-27T12:14:50.145Z,101754.91
2022-11-27T12:17:44.934Z,101747.94
2022-11-27T12:20:26.771Z,101734.00
2022-11-27T12:23:16.004Z,101727.00
2022-11-27T12:26:20.099Z,101714.84
2022-11-27T12:29:19.308Z,101692.16
2022-11-27T12:32:35.534Z,101700.88
2022-11-27T12:35:29.930Z,101685.19
2022-11-27T12:38:44.745Z,101679.97
2022-11-27T12:41:42.783Z,101684.31
2022-11-27T12:44:35.057Z,101693.03
2022-11-27T12:47:15.994Z,101688.66
2022-11-27T12:49:52.977Z,101683.44
2022-11-27T12:52:27.102Z,101689.56
2022-11-27T12:55:12.294Z,101686.91
2022-11-27T12:57:49.692Z,101689.53
2022-11-27T13:00:22.251Z,101681.72
2022-11-27T13:03:45.748Z,101672.97
2022-11-27T13:06:19.912Z,101668.63
2022-11-27T13:09:12.533Z,101663.38
2022-11-27T13:11:41.589Z,101650.31
2022-11-27T13:14:14.165Z,101645.94
2022-11-27T13:16:47.603Z,101645.94
2022-11-27T13:19:40.569Z,101638.09
2022-11-27T13:22:16.362Z,101645.94
2022-11-27T13:24:44.006Z,101655.53
2022-11-27T13:27:24.291Z,101658.16
2022-11-27T13:30:07.670Z,101641.56
2022-11-27T13:32:49.428Z,101631.09
2022-11-27T13:35:41.798Z,101608.44
2022-11-27T13:38:24.683Z,101598.84
2022-11-27T13:40:56.006Z,101595.34
2022-11-27T13:43:47.567Z,101591.88
2022-11-27T13:46:26.360Z,101599.72
2022-11-27T13:49:03.354Z,101587.50
2022-11-27T13:51:35.282Z,101598.84
2022-11-27T13:54:21.316Z,101606.69
2022-11-27T13:56:51.959Z,101615.41
2022-11-27T13:59:24.376Z,101611.03
2022-11-27T14:02:00.578Z,101618.91
2022-11-27T14:04:33.405Z,101611.03
2022-11-27T14:07:10.217Z,101597.94
2022-11-27T14:09:46.957Z,101599.66
2022-11-27T14:12:27.066Z,101590.97
2022-11-27T14:15:20.294Z,101570.88
2022-11-27T14:17:51.147Z,101578.75
2022-11-27T14:20:20.514Z,101572.59
2022-11-27T14:23:11.619Z,101568.28
2022-11-27T14:25:40.244Z,101564.75
2022-11-27T14:28:26.034Z,101553.44
2022-11-27T14:30:59.254Z,101545.59
2022-11-27T14:33:47.371Z,101537.72
2022-11-27T14:36:30.651Z,101546.44
2022-11-27T14:38:58.990Z,101544.69
2022-11-27T14:41:29.125Z,101536.84
2022-11-27T14:44:14.071Z,101544.69
2022-11-27T14:46:41.788Z,101546.44
2022-11-27T14:49:19.847Z,101545.56
2022-11-27T14:51:50.479Z,101544.69
2022-11-27T14:54:28.238Z,101541.22
2022-11-27T14:56:57.134Z,101544.69
2022-11-27T14:59:25.008Z,101540.31
2022-11-27T15:02:17.709Z,101534.22
2022-11-27T15:04:46.867Z,101522.88
2022-11-27T15:07:21.739Z,101522.88
2022-11-27T15:09:54.270Z,101526.41
2022-11-27T15:12:39.186Z,101517.69
2022-11-27T15:15:20.510Z,101517.69
2022-11-27T15:17:52.757Z,101515.06
2022-11-27T15:20:29.630Z,101524.66
2022-11-27T15:23:00.141Z,101510.72
2022-11-27T15:25:40.230Z,101509.81
2022-11-27T15:28:34.879Z,101509.81
2022-11-27T15:31:22.696Z,101503.72
2022-11-27T15:34:04.361Z,101498.50
2022-11-27T15:36:40.470Z,101493.25
2022-11-27T15:39:47.123Z,101488.03
2022-11-27T15:42:18.613Z,101484.53
2022-11-27T15:44:47.482Z,101474.94
2022-11-27T15:47:33.792Z,101465.34
2022-11-27T15:50:05.225Z,101468.84
2022-11-27T15:52:33.276Z,101464.47
2022-11-27T15:55:00.708Z,101467.09
2022-11-27T15:57:28.063Z,101457.50
2022-11-27T16:00:04.767Z,101465.34
2022-11-27T16:02:42.605Z,101462.75
2022-11-27T16:05:10.598Z,101456.63
2022-11-27T16:07:38.046Z,101450.53
2022-11-27T16:10:06.665Z,101447.00
2022-11-27T16:12:34.334Z,101447.00
2022-11-27T16:15:02.056Z,101437.44
2022-11-27T16:17:29.420Z,101444.41
2022-11-27T16:19:56.769Z,101439.16
2022-11-27T16:22:24.344Z,101428.72
2022-11-27T16:24:51.839Z,101428.69
2022-11-27T16:27:19.253Z,101419.97
2022-11-27T16:29:46.593Z,101416.50
2022-11-27T16:32:14.004Z,101404.28
2022-11-27T16:34:41.794Z,101400.81
2022-11-27T16:37:12.068Z,101401.66
2022-11-27T16:39:41.713Z,101397.28
2022-11-27T16:42:09.144Z,101396.44
2022-11-27T16:44:36.565Z,101388.59
2022-11-27T16:47:03.935Z,101392.06
2022-11-27T16:49:31.318Z,101390.34
2022-11-27T16:51:58.718Z,101383.34
2022-11-27T16:54:26.149Z,101377.25
2022-11-27T16:56:54.842Z,101372.88
2022-11-27T16:59:22.585Z,101369.38
2022-11-27T17:01:50.222Z,101358.91
2022-11-27T17:04:20.342Z,101356.28
2022-11-27T17:06:49.582Z,101358.91
2022-11-27T17:09:17.373Z,101361.50
2022-11-27T17:11:50.356Z,101352.78
2022-11-27T17:14:20.389Z,101351.91
2022-11-27T17:16:49.378Z,101355.41
2022-11-27T17:19:18.589Z,101351.91
2022-11-27T17:21:46.298Z,101345.81
2022-11-27T17:24:17.033Z,101348.44
2022-11-27T17:26:48.011Z,101343.19
2022-11-27T17:29:19.073Z,101344.06
2022-11-27T17:31:47.131Z,101343.19
2022-11-27T17:34:17.065Z,101348.44
2022-11-27T17:36:45.750Z,101336.25
2022-11-27T17:39:15.415Z,101338.88
2022-11-27T17:41:45.064Z,101339.72
2022-11-27T17:44:13.445Z,101345.00
2022-11-27T17:46:41.263Z,101333.63
2022-11-27T17:49:08.712Z,101328.41
2022-11-27T17:51:36.627Z,101332.78
2022-11-27T17:54:05.389Z,101324.97
2022-11-27T17:56:34.915Z,101338.91
2022-11-27T17:59:04.094Z,101329.34
2022-11-27T18:01:34.571Z,101335.44
2022-11-27T18:04:04.313Z,101330.19
2022-11-27T18:06:33.535Z,101324.97
2022-11-27T18:09:00.871Z,101324.09
2022-11-27T18:11:33.718Z,101320.63
2022-11-27T18:14:02.834Z,101315.41
2022-11-27T18:16:37.698Z,101311.06
2022-11-27T18:19:09.027Z,101301.47
2022-11-27T18:21:37.520Z,101289.28
2022-11-27T18:24:23.638Z,101290.13
2022-11-27T18:27:08.043Z,101284.03
2022-11-27T18:29:44.422Z,101279.72
2022-11-27T18:32:14.668Z,101267.50
2022-11-27T18:34:42.438Z,101262.25
2022-11-27T18:37:11.327Z,101253.56
2022-11-27T18:39:40.365Z,101253.56
2022-11-27T18:42:08.223Z,101254.44
2022-11-27T18:44:39.649Z,101243.13
2022-11-27T18:47:13.974Z,101241.38
2022-11-27T18:49:43.243Z,101245.75
2022-11-27T18:52:11.161Z,101241.38
2022-11-27T18:54:38.738Z,101233.53
2022-11-27T18:57:07.279Z,101226.59
2022-11-27T18:59:35.306Z,101234.44
2022-11-27T19:02:04.700Z,101236.19
2022-11-27T19:04:36.455Z,101233.53
2022-11-27T19:07:03.804Z,101236.19
2022-11-27T19:09:31.501Z,101237.03
2022-11-27T19:11:58.918Z,101231.81
2022-11-27T19:14:26.382Z,101223.97
2022-11-27T19:16:53.875Z,101223.09
2022-11-27T19:22:10.131Z,101223.16
2022-11-27T19:24:39.875Z,101210.94
2022-11-27T19:27:07.520Z,101215.28
2022-11-27T19:29:35.432Z,101208.31
2022-11-27T19:32:02.949Z,101213.53
2022-11-27T19:34:30.533Z,101216.16
2022-11-27T19:36:58.447Z,101210.94
2022-11-27T19:39:27.131Z,101204.84
2022-11-27T19:41:54.785Z,101194.38
2022-11-27T19:44:22.137Z,101190.00
2022-11-27T19:46:49.584Z,101183.94
2022-11-27T19:49:18.650Z,101181.34
2022-11-27T19:51:47.129Z,101180.47
2022-11-27T19:54:15.762Z,101183.06
2022-11-27T19:56:43.513Z,101174.38
2022-11-27T19:59:13.183Z,101171.75
2022-11-27T20:01:42.658Z,101162.19
2022-11-27T20:04:12.166Z,101165.66
2022-11-27T20:06:40.977Z,101161.34
2022-11-27T20:09:08.890Z,101159.59
2022-11-27T20:11:36.756Z,101145.66
2022-11-27T20:14:06.409Z,101139.53
2022-11-27T20:16:37.577Z,101141.28
2022-11-27T20:19:06.243Z,101136.03
2022-11-27T20:21:37.466Z,101129.06
2022-11-27T20:24:05.213Z,101143.88
2022-11-27T20:26:37.216Z,101130.81
2022-11-27T20:29:07.698Z,101121.25
2022-11-27T20:31:37.687Z,101120.38
2022-11-27T20:34:08.368Z,101120.38
2022-11-27T20:36:40.473Z,101116.88
2022-11-27T20:39:12.970Z,101120.38
2022-11-27T20:41:42.534Z,101113.41
2022-11-27T20:44:11.421Z,101110.81
2022-11-27T20:46:38.854Z,101087.28
2022-11-27T20:49:06.375Z,101097.75
2022-11-27T20:51:34.133Z,101088.19
2022-11-27T20:54:13.126Z,101105.59
2022-11-27T20:56:44.755Z,101097.75
2022-11-27T20:59:13.364Z,101095.13
2022-11-27T21:01:41.594Z,101083.81
2022-11-27T21:04:26.532Z,101075.09
2022-11-27T21:06:54.477Z,101082.09
2022-11-27T21:09:22.032Z,101088.19
2022-11-27T21:11:49.675Z,101071.63
2022-11-27T21:14:17.995Z,101067.25
2022-11-27T21:16:48.857Z,101058.56
2022-11-27T21:19:26.956Z,101057.66
2022-11-27T21:21:56.670Z,101053.34
2022-11-27T21:24:29.161Z,101049.81
2022-11-27T21:26:56.999Z,101052.47
2022-11-27T21:29:27.631Z,101044.66
2022-11-27T21:31:55.275Z,101047.25
2022-11-27T21:34:23.702Z,101047.25
2022-11-27T21:36:51.255Z,101044.63
2022-11-27T21:39:22.075Z,101043.75
2022-11-27T21:41:54.286Z,101036.78
2022-11-27T21:44:25.302Z,101031.56
2022-11-27T21:46:53.247Z,101028.94
2022-11-27T21:49:21.257Z,101033.28
2022-11-27T21:51:53.427Z,101035.00
2022-11-27T21:54:27.652Z,101026.28
2022-11-27T21:56:57.209Z,101026.28
2022-11-27T21:59:24.844Z,101018.44
2022-11-27T22:01:52.502Z,101016.69
2022-11-27T22:04:20.028Z,101011.44
2022-11-27T22:06:55.861Z,100994.88
2022-11-27T22:09:23.255Z,101006.19
2022-11-27T22:11:54.940Z,101007.94
2022-11-27T22:14:22.773Z,101002.69
2022-11-27T22:16:50.577Z,100989.63
2022-11-27T22:19:18.075Z,100992.25
2022-11-27T22:21:45.754Z,100988.72
2022-11-27T22:24:19.008Z,100974.78
2022-11-27T22:26:51.182Z,100971.28
2022-11-27T22:29:23.712Z,100973.88
2022-11-27T22:31:53.791Z,100979.13
2022-11-27T22:34:21.317Z,100963.41
2022-11-27T22:36:48.876Z,100973.00
2022-11-27T22:39:16.259Z,100966.88
2022-11-27T22:41:44.865Z,100972.97
2022-11-27T22:44:18.817Z,100967.72
2022-11-27T22:46:47.219Z,100950.28
2022-11-27T22:49:17.446Z,100963.34
2022-11-27T22:51:46.137Z,100943.28
2022-11-27T22:54:17.015Z,100948.50
2022-11-27T22:56:45.755Z,100947.59
2022-11-27T23:02:03.629Z,100946.72
2022-11-27T23:04:31.577Z,100948.44
2022-11-27T23:06:59.461Z,100940.56
2022-11-27T23:09:27.193Z,100927.50
2022-11-27T23:11:56.333Z,100938.81
2022-11-27T23:14:25.753Z,100924.84
2022-11-27T23:16:53.194Z,100925.69
2022-11-27T23:19:21.067Z,100920.44
2022-11-27T23:21:48.403Z,100918.69
2022-11-27T23:24:15.926Z,100913.44
2022-11-27T23:26:44.095Z,100926.50
2022-11-27T23:29:12.122Z,100909.91
2022-11-27T23:31:39.808Z,100913.38
2022-11-27T23:34:13.064Z,100905.50
2022-11-27T23:36:40.741Z,100908.13
2022-11-27T23:39:12.112Z,100902.88
2022-11-27T23:41:40.422Z,100902.03
2022-11-27T23:44:08.119Z,100895.03
2022-11-27T23:46:35.469Z,100901.97
2022-11-27T23:49:02.983Z,100899.34
2022-11-27T23:51:32.425Z,100894.13
2022-11-27T23:54:00.967Z,100893.25
2022-11-27T23:56:32.356Z,100894.09
2022-11-27T23:59:00.745Z,100891.47
